Time;durP1;ratioP1;P1;durP2;ratioP2;P2;SDS_P1;SDS_P2;PMS_P1;PMS_P2;Temp;Humidity;BMP_temperature;BMP_pressure;BME280_temperature;BME280_humidity;BME280_pressure;Samples;Min_cycle;Max_cycle;Signal;HPM_P1;HPM_P2
2023/03/15 00:00:27;;;;;;;5.22;1.70;;;;;;;-143.48;96.13;118439.88;5073352;28;20024;-29
2023/03/15 00:02:52;;;;;;;3.53;1.58;;;;;;;-143.48;96.24;118439.88;5073056;28;20024;-29
2023/03/15 00:05:17;;;;;;;4.30;1.15;;;;;;;-143.48;96.06;118439.88;5073380;28;20017;-29
2023/03/15 00:07:43;;;;;;;5.43;1.27;;;;;;;-143.48;96.71;118439.88;5073354;28;20478;-30
2023/03/15 00:10:09;;;;;;;3.40;1.33;;;;;;;-143.48;96.81;118439.88;5073249;28;20459;-29
2023/03/15 00:12:34;;;;;;;4.47;1.40;;;;;;;-143.48;96.83;118439.88;5073165;28;20364;-30
2023/03/15 00:15:00;;;;;;;5.50;1.30;;;;;;;-143.48;97.07;118439.88;5073009;28;20028;-30
2023/03/15 00:17:25;;;;;;;3.63;1.17;;;;;;;-143.48;96.89;118439.88;5073220;28;20043;-29
2023/03/15 00:19:50;;;;;;;3.97;1.25;;;;;;;-143.48;97.43;118439.88;5073185;28;20021;-29
2023/03/15 00:22:16;;;;;;;3.92;1.40;;;;;;;-143.48;97.11;118439.88;5072756;28;20064;-29
2023/03/15 00:24:41;;;;;;;5.50;1.38;;;;;;;-143.48;97.21;118439.88;5073113;28;20108;-30
2023/03/15 00:27:07;;;;;;;4.30;1.40;;;;;;;-143.48;97.21;118439.88;5073079;28;20017;-29
2023/03/15 00:29:32;;;;;;;2.55;1.00;;;;;;;-143.48;97.51;118439.88;5073086;28;20408;-29
2023/03/15 00:31:58;;;;;;;2.65;1.40;;;;;;;-143.48;97.78;118439.88;5072952;28;20104;-29
2023/03/15 00:34:25;;;;;;;4.38;1.40;;;;;;;-143.48;97.90;118439.88;5076816;28;20119;-29
2023/03/15 00:36:56;;;;;;;3.75;1.25;;;;;;;-143.48;97.74;118439.88;5076589;28;20117;-28
2023/03/15 00:39:24;;;;;;;6.20;1.20;;;;;;;-143.48;97.48;118439.88;5076805;28;20051;-29
2023/03/15 00:41:50;;;;;;;2.13;1.30;;;;;;;-143.48;97.63;118439.88;5076952;28;20021;-29
2023/03/15 00:44:16;;;;;;;3.83;1.42;;;;;;;-143.48;97.96;118439.88;5076853;28;20020;-29
2023/03/15 00:46:41;;;;;;;7.22;1.70;;;;;;;-143.48;98.13;118439.88;5076326;28;20455;-29
2023/03/15 00:49:06;;;;;;;5.07;1.40;;;;;;;-143.48;98.08;118439.88;5076356;28;20025;-29
2023/03/15 00:51:32;;;;;;;5.57;1.58;;;;;;;-143.48;98.34;118439.88;5058388;28;20033;-29
2023/03/15 00:53:57;;;;;;;6.05;1.52;;;;;;;-143.48;98.37;118439.88;5076218;28;20437;-29
2023/03/15 00:56:25;;;;;;;5.68;1.30;;;;;;;-143.48;98.31;118439.88;5076460;28;20028;-29
2023/03/15 00:58:51;;;;;;;3.50;1.27;;;;;;;-143.48;97.99;118439.88;5076305;28;20121;-29
2023/03/15 01:01:23;;;;;;;12.20;1.85;;;;;;;-143.48;97.28;118439.88;5076099;28;20028;-29
2023/03/15 01:03:49;;;;;;;6.35;1.40;;;;;;;-143.48;97.12;118439.88;5058792;28;20108;-29
2023/03/15 01:06:21;;;;;;;3.97;1.35;;;;;;;-143.48;97.38;118439.88;5076127;28;20024;-29
2023/03/15 01:08:47;;;;;;;3.95;1.42;;;;;;;-143.48;97.60;118439.88;5075825;28;20029;-29
2023/03/15 01:11:23;;;;;;;7.22;1.58;;;;;;;-143.48;97.65;118439.88;5076003;28;20416;-29
2023/03/15 01:13:50;;;;;;;6.35;1.30;;;;;;;-143.48;97.73;118439.88;5076498;28;20024;-29
2023/03/15 01:16:15;;;;;;;2.20;1.05;;;;;;;-143.48;97.87;118439.88;5076036;28;20020;-29
2023/03/15 01:18:40;;;;;;;7.03;1.30;;;;;;;-143.48;98.08;118439.88;5076133;28;20035;-29
2023/03/15 01:21:08;;;;;;;5.68;2.08;;;;;;;-143.48;98.36;118439.88;5075773;28;20417;-29
2023/03/15 01:23:34;;;;;;;6.65;1.52;;;;;;;-143.48;98.50;118439.88;5076255;28;20455;-29
2023/03/15 01:26:00;;;;;;;4.35;1.50;;;;;;;-143.48;98.01;118439.88;5075663;28;20099;-29
2023/03/15 01:28:26;;;;;;;3.95;1.35;;;;;;;-143.48;98.52;118439.88;5075499;28;20378;-29
2023/03/15 01:30:52;;;;;;;5.80;1.30;;;;;;;-143.48;98.29;118439.88;5075801;28;20023;-29
2023/03/15 01:33:19;;;;;;;6.40;1.52;;;;;;;-143.48;98.27;118439.88;5057550;28;20044;-29
2023/03/15 01:35:44;;;;;;;4.68;1.67;;;;;;;-143.48;98.53;118439.88;5075589;28;20505;-30
2023/03/15 01:38:10;;;;;;;9.48;2.00;;;;;;;-143.48;98.37;118439.88;5075670;28;20032;-29
2023/03/15 01:40:41;;;;;;;8.88;1.85;;;;;;;-143.48;98.09;118439.88;5075460;28;20020;-29
2023/03/15 01:43:06;;;;;;;4.18;1.58;;;;;;;-143.48;97.86;118439.88;5075196;28;20095;-29
2023/03/15 01:45:56;;;;;;;5.60;1.40;;;;;;;-143.48;98.48;118439.88;5075787;28;20462;-30
2023/03/15 01:48:26;;;;;;;6.75;1.80;;;;;;;-143.48;98.05;118439.88;5075739;28;20077;-29
2023/03/15 01:50:53;;;;;;;5.10;1.42;;;;;;;-143.48;97.88;118439.88;5075143;28;20099;-29
2023/03/15 01:53:21;;;;;;;7.10;1.30;;;;;;;-143.48;97.37;118439.88;5075463;28;20421;-29
2023/03/15 01:55:46;;;;;;;7.97;1.70;;;;;;;-143.48;97.26;118439.88;5075683;28;20017;-29
2023/03/15 01:58:12;;;;;;;4.55;1.58;;;;;;;-143.48;96.64;118439.88;5057110;28;20426;-29
2023/03/15 02:00:37;;;;;;;7.78;1.70;;;;;;;-143.48;97.37;118439.88;5075251;28;20487;-29
2023/03/15 02:03:08;;;;;;;2.22;1.40;;;;;;;-143.48;97.74;118439.88;5075499;28;20024;-29
2023/03/15 02:05:38;;;;;;;3.72;1.40;;;;;;;-143.48;97.78;118439.88;5075103;28;20434;-29
2023/03/15 02:08:07;;;;;;;5.28;1.45;;;;;;;-143.48;98.20;118439.88;5074938;28;20035;-29
2023/03/15 02:10:32;;;;;;;6.45;1.98;;;;;;;-143.48;97.79;118439.88;5074813;28;20032;-29
2023/03/15 02:12:58;;;;;;;10.63;1.55;;;;;;;-143.48;97.40;118439.88;5074696;28;20025;-29
2023/03/15 02:15:23;;;;;;;5.45;1.50;;;;;;;-143.48;97.30;118439.88;5074751;28;20032;-29
2023/03/15 02:17:49;;;;;;;5.50;1.50;;;;;;;-143.48;97.33;118439.88;5074984;28;20012;-29
2023/03/15 02:20:39;;;;;;;6.70;1.48;;;;;;;-143.48;97.40;118439.88;5056690;28;20103;-29
2023/03/15 02:23:11;;;;;;;2.72;1.30;;;;;;;-143.48;98.02;118439.88;5074710;28;20511;-29
2023/03/15 02:25:40;;;;;;;10.00;2.50;;;;;;;-143.48;98.11;118439.88;5074730;28;20467;-30
2023/03/15 02:28:08;;;;;;;5.50;1.25;;;;;;;-143.48;97.75;118439.88;5074766;28;20059;-29
2023/03/15 02:30:34;;;;;;;5.55;1.17;;;;;;;-143.48;98.06;118439.88;5074467;28;20122;-29
2023/03/15 02:33:02;;;;;;;6.00;1.73;;;;;;;-143.48;98.35;118439.88;5056044;28;20056;-29
2023/03/15 02:35:30;;;;;;;4.25;1.20;;;;;;;-143.48;98.27;118439.88;5074078;28;20396;-29
2023/03/15 02:37:56;;;;;;;3.25;1.20;;;;;;;-143.48;98.07;118439.88;5074077;28;20048;-29
2023/03/15 02:40:26;;;;;;;6.75;1.33;;;;;;;-143.48;98.01;118439.88;5074207;28;20025;-29
2023/03/15 02:42:55;;;;;;;4.93;1.27;;;;;;;-143.48;98.48;118439.88;5074438;28;20387;-29
2023/03/15 02:45:22;;;;;;;8.35;1.63;;;;;;;-143.48;98.71;118439.88;5055727;28;20021;-28
2023/03/15 02:47:49;;;;;;;5.90;1.40;;;;;;;-143.48;98.24;118439.88;5074120;28;20036;-29
2023/03/15 02:50:14;;;;;;;7.45;1.42;;;;;;;-143.48;98.29;118439.88;5074607;28;20466;-29
2023/03/15 02:52:39;;;;;;;4.32;1.30;;;;;;;-143.48;97.83;118439.88;5073974;28;20032;-29
2023/03/15 02:55:05;;;;;;;4.38;1.70;;;;;;;-143.48;97.74;118439.88;5073068;28;20037;-29
2023/03/15 02:57:31;;;;;;;4.47;1.45;;;;;;;-143.48;97.65;118439.88;5074231;28;20024;-29
2023/03/15 02:59:57;;;;;;;6.07;1.52;;;;;;;-143.48;97.93;118439.88;5073906;28;20021;-29
2023/03/15 03:02:22;;;;;;;6.50;1.83;;;;;;;-143.48;97.50;118439.88;5074186;28;20029;-29
2023/03/15 03:04:48;;;;;;;6.05;1.50;;;;;;;-143.48;97.48;118439.88;5073985;28;20051;-29
2023/03/15 03:07:14;;;;;;;3.45;1.52;;;;;;;-143.48;97.60;118439.88;5074179;28;20108;-29
2023/03/15 03:09:39;;;;;;;4.97;1.67;;;;;;;-143.48;97.35;118439.88;5074021;28;20025;-29
2023/03/15 03:12:04;;;;;;;8.23;1.40;;;;;;;-143.48;97.39;118439.88;5073692;28;20040;-29
2023/03/15 03:14:30;;;;;;;3.58;1.30;;;;;;;-143.48;97.34;118439.88;5073941;28;20062;-29
2023/03/15 03:16:55;;;;;;;5.00;1.63;;;;;;;-143.48;97.04;118439.88;5073893;28;20091;-29
2023/03/15 03:19:24;;;;;;;8.30;1.40;;;;;;;-143.48;96.71;118439.88;5073838;28;20024;-29
2023/03/15 03:21:53;;;;;;;6.07;1.98;;;;;;;-143.48;96.36;118439.88;5073937;28;20032;-29
2023/03/15 03:24:19;;;;;;;4.57;1.63;;;;;;;-143.48;96.72;118439.88;5073807;28;20017;-29
2023/03/15 03:26:45;;;;;;;11.32;1.80;;;;;;;-143.48;96.67;118439.88;5073957;28;20028;-29
2023/03/15 03:29:10;;;;;;;7.93;1.60;;;;;;;-143.48;96.71;118439.88;5073428;28;20074;-29
2023/03/15 03:31:36;;;;;;;4.32;1.55;;;;;;;-143.48;96.67;118439.88;5073774;28;20024;-29
2023/03/15 03:34:01;;;;;;;4.45;1.52;;;;;;;-143.48;96.34;118439.88;5073404;28;20422;-29
2023/03/15 03:36:26;;;;;;;4.78;1.40;;;;;;;-143.48;96.26;118439.88;5073442;28;20049;-29
2023/03/15 03:38:56;;;;;;;5.25;1.63;;;;;;;-143.48;96.24;118439.88;5073592;28;20440;-29
2023/03/15 03:41:21;;;;;;;7.88;2.25;;;;;;;-143.48;96.08;118439.88;5056182;28;20056;-28
2023/03/15 03:43:47;;;;;;;8.07;2.08;;;;;;;-143.48;96.11;118439.88;5073641;28;20442;-29
2023/03/15 03:46:12;;;;;;;9.52;1.80;;;;;;;-143.48;96.23;118439.88;5073259;28;20495;-30
2023/03/15 03:48:37;;;;;;;4.10;1.73;;;;;;;-143.48;96.01;118439.88;5073258;28;20024;-29
2023/03/15 03:51:03;;;;;;;15.95;1.83;;;;;;;-143.48;96.52;118439.88;5073365;28;20055;-29
2023/03/15 03:53:28;;;;;;;10.48;1.80;;;;;;;-143.48;96.75;118439.88;5073256;28;20025;-29
2023/03/15 03:55:53;;;;;;;6.50;1.45;;;;;;;-143.48;96.44;118439.88;5073771;28;20359;-29
2023/03/15 03:58:19;;;;;;;8.45;1.60;;;;;;;-143.48;96.65;118439.88;5073192;28;20025;-29
2023/03/15 04:00:45;;;;;;;5.07;2.15;;;;;;;-143.48;96.34;118439.88;5073174;28;20125;-29
2023/03/15 04:03:10;;;;;;;5.88;1.40;;;;;;;-143.48;96.63;118439.88;5073335;28;20030;-29
2023/03/15 04:05:36;;;;;;;3.42;1.70;;;;;;;-143.48;96.82;118439.88;5073323;28;20108;-29
2023/03/15 04:08:01;;;;;;;6.20;1.80;;;;;;;-143.48;96.70;118439.88;5076658;28;20360;-29
2023/03/15 04:10:27;;;;;;;7.53;1.90;;;;;;;-143.48;96.50;118439.88;5077647;28;20106;-30
2023/03/15 04:12:53;;;;;;;3.88;1.73;;;;;;;-143.48;96.22;118439.88;5076985;28;20032;-29
2023/03/15 04:15:21;;;;;;;5.18;1.80;;;;;;;-143.48;96.88;118439.88;5059134;28;20043;-29
2023/03/15 04:17:47;;;;;;;7.03;1.90;;;;;;;-143.48;96.94;118439.88;5077278;28;20031;-29
2023/03/15 04:20:14;;;;;;;9.60;1.90;;;;;;;-143.48;97.01;118439.88;5077780;28;20032;-29
2023/03/15 04:22:39;;;;;;;6.68;2.30;;;;;;;-143.48;96.93;118439.88;5077138;28;20124;-29
2023/03/15 04:25:06;;;;;;;6.80;2.00;;;;;;;-143.48;96.87;118439.88;5077342;28;20028;-29
2023/03/15 04:27:31;;;;;;;4.30;2.03;;;;;;;-143.48;96.85;118439.88;5077096;28;20101;-29
2023/03/15 04:29:57;;;;;;;9.07;2.60;;;;;;;-143.48;96.83;118439.88;5076750;28;20028;-29
2023/03/15 04:32:22;;;;;;;8.13;2.40;;;;;;;-143.48;96.93;118439.88;5076707;28;20028;-29
2023/03/15 04:34:50;;;;;;;5.22;1.92;;;;;;;-143.48;97.10;118439.88;5076535;28;20027;-29
2023/03/15 04:37:17;;;;;;;5.07;2.00;;;;;;;-143.48;97.10;118439.88;5077034;28;20128;-29
2023/03/15 04:39:42;;;;;;;8.65;2.20;;;;;;;-143.48;97.27;118439.88;5076549;28;20120;-29
2023/03/15 04:42:08;;;;;;;7.72;2.78;;;;;;;-143.48;97.30;118439.88;5076749;28;20108;-29
2023/03/15 04:44:33;;;;;;;7.07;2.13;;;;;;;-143.48;97.51;118439.88;5076775;28;20348;-29
2023/03/15 04:46:58;;;;;;;7.30;2.25;;;;;;;-143.48;97.39;118439.88;5076292;28;20451;-29
2023/03/15 04:49:24;;;;;;;7.95;2.20;;;;;;;-143.48;97.16;118439.88;5076733;28;20035;-29
2023/03/15 04:51:49;;;;;;;5.97;2.40;;;;;;;-143.48;97.19;118439.88;5076945;28;20028;-29
2023/03/15 04:54:14;;;;;;;9.23;2.38;;;;;;;-143.48;97.06;118439.88;5076621;28;20028;-29
2023/03/15 04:56:41;;;;;;;9.60;2.40;;;;;;;-143.48;97.37;118439.88;5076726;28;20069;-29
2023/03/15 04:59:06;;;;;;;4.10;2.50;;;;;;;-143.48;97.96;118439.88;5076235;28;20025;-29
2023/03/15 05:01:32;;;;;;;8.05;2.83;;;;;;;-143.48;97.65;118439.88;5076155;28;20055;-29
2023/03/15 05:03:58;;;;;;;11.15;2.72;;;;;;;-143.48;98.15;118439.88;5058199;28;20029;-29
2023/03/15 05:06:23;;;;;;;10.35;2.10;;;;;;;-143.48;97.37;118439.88;5076005;28;20028;-29
2023/03/15 05:08:49;;;;;;;12.80;2.10;;;;;;;-143.48;97.17;118439.88;5058659;28;20523;-30
2023/03/15 05:11:15;;;;;;;6.05;1.90;;;;;;;-143.48;96.38;118439.88;5076327;28;20039;-29
2023/03/15 05:13:40;;;;;;;7.70;2.28;;;;;;;-143.48;95.78;118439.88;5076219;28;20020;-30
2023/03/15 05:16:06;;;;;;;6.07;2.17;;;;;;;-143.48;95.31;118439.88;5076137;28;20031;-30
2023/03/15 05:18:31;;;;;;;5.55;1.85;;;;;;;-143.48;95.04;118439.88;5074933;28;20024;-29
2023/03/15 05:20:56;;;;;;;6.70;2.20;;;;;;;-143.48;95.61;118439.88;5076123;28;20017;-29
2023/03/15 05:23:23;;;;;;;9.18;2.30;;;;;;;-143.48;95.98;118439.88;5075753;28;20028;-29
2023/03/15 05:25:53;;;;;;;9.38;2.38;;;;;;;-143.48;95.32;118439.88;5075943;28;20025;-29
2023/03/15 05:28:23;;;;;;;8.93;2.53;;;;;;;-143.48;95.00;118439.88;5075746;28;20111;-29
2023/03/15 05:30:51;;;;;;;11.98;2.58;;;;;;;-143.48;95.74;118439.88;5075517;28;20024;-29
2023/03/15 05:33:16;;;;;;;5.75;2.40;;;;;;;-143.48;95.06;118439.88;5075813;28;20112;-29
2023/03/15 05:35:43;;;;;;;11.57;2.20;;;;;;;-143.48;94.62;118439.88;5076128;28;20475;-29
2023/03/15 05:38:13;;;;;;;19.48;2.53;;;;;;;-143.48;94.00;118439.88;5075335;28;20075;-29
2023/03/15 05:40:39;;;;;;;11.25;2.50;;;;;;;-143.48;93.66;118439.88;5075547;28;20071;-29
2023/03/15 05:43:04;;;;;;;8.55;2.00;;;;;;;-143.48;93.78;118439.88;5075560;28;20531;-29
2023/03/15 05:45:30;;;;;;;13.30;1.90;;;;;;;-143.48;94.19;118439.88;5075168;28;20107;-29
2023/03/15 05:47:55;;;;;;;9.07;1.83;;;;;;;-143.48;94.62;118439.88;5057677;28;20124;-29
2023/03/15 05:50:22;;;;;;;6.72;1.88;;;;;;;-143.48;94.88;118439.88;5076002;28;20027;-29
2023/03/15 05:52:49;;;;;;;8.32;1.80;;;;;;;-143.48;94.43;118439.88;5075098;28;20072;-29
2023/03/15 05:55:14;;;;;;;9.80;1.58;;;;;;;-143.48;94.74;118439.88;5057724;28;20052;-29
2023/03/15 05:57:40;;;;;;;8.75;1.80;;;;;;;-143.48;94.96;118439.88;5075283;28;20439;-29
2023/03/15 06:00:07;;;;;;;6.75;1.50;;;;;;;-143.48;95.85;118439.88;5074950;28;20024;-29
2023/03/15 06:02:33;;;;;;;5.22;1.52;;;;;;;-143.48;95.26;118439.88;5056871;28;20066;-29
2023/03/15 06:04:58;;;;;;;9.52;1.70;;;;;;;-143.48;95.09;118439.88;5075104;28;20028;-29
2023/03/15 06:07:23;;;;;;;7.63;1.98;;;;;;;-143.48;95.27;118439.88;5074740;28;20069;-29
2023/03/15 06:09:50;;;;;;;15.77;2.72;;;;;;;-143.48;94.98;118439.88;5074881;28;20032;-29
2023/03/15 06:12:16;;;;;;;17.15;2.10;;;;;;;-143.48;94.95;118439.88;5075015;28;20123;-30
2023/03/15 06:14:41;;;;;;;5.22;2.08;;;;;;;-143.48;94.62;118439.88;5074882;28;20485;-29
2023/03/15 06:17:07;;;;;;;7.25;1.92;;;;;;;-143.48;94.05;118439.88;5074789;28;20045;-29
2023/03/15 06:19:32;;;;;;;7.57;1.70;;;;;;;-143.48;93.29;118439.88;5074724;28;20025;-29
2023/03/15 06:21:57;;;;;;;5.32;1.40;;;;;;;-143.48;92.40;118439.88;5056655;28;20463;-29
2023/03/15 06:24:23;;;;;;;9.70;2.78;;;;;;;-143.48;91.66;118439.88;5074545;28;20023;-29
2023/03/15 06:26:49;;;;;;;10.60;1.90;;;;;;;-143.48;91.60;118439.88;5074848;28;20444;-29
2023/03/15 06:29:16;;;;;;;14.05;2.25;;;;;;;-143.48;91.35;118439.88;5074542;28;20058;-29
2023/03/15 06:31:41;;;;;;;10.43;2.15;;;;;;;-143.48;91.87;118439.88;5056498;28;20025;-34
2023/03/15 06:34:07;;;;;;;10.13;2.25;;;;;;;-143.48;92.55;118439.88;5074388;28;20077;-29
2023/03/15 06:36:32;;;;;;;5.97;1.92;;;;;;;-143.48;92.85;118439.88;5074658;28;20056;-30
2023/03/15 06:38:58;;;;;;;12.00;2.20;;;;;;;-143.48;92.37;118439.88;5074333;28;20025;-29
2023/03/15 06:41:23;;;;;;;9.00;2.20;;;;;;;-143.48;92.96;118439.88;5074231;28;20075;-29
2023/03/15 06:43:49;;;;;;;9.60;2.80;;;;;;;-143.48;93.10;118439.88;5074257;28;20024;-29
2023/03/15 06:46:14;;;;;;;7.30;2.15;;;;;;;-143.48;93.30;118439.88;5074047;28;20024;-29
2023/03/15 06:48:40;;;;;;;10.32;2.38;;;;;;;-143.48;93.60;118439.88;5074473;28;20463;-29
2023/03/15 06:51:05;;;;;;;9.23;2.35;;;;;;;-143.48;93.94;118439.88;5074712;28;20021;-29
2023/03/15 06:53:31;;;;;;;10.07;2.65;;;;;;;-143.48;93.43;118439.88;5074061;28;20475;-29
2023/03/15 06:55:56;;;;;;;8.38;3.10;;;;;;;-143.48;93.58;118439.88;5074259;28;20032;-29
2023/03/15 06:58:21;;;;;;;14.80;3.53;;;;;;;-143.48;93.45;118439.88;5073891;28;20029;-29
2023/03/15 07:00:48;;;;;;;12.88;3.30;;;;;;;-143.48;93.47;118439.88;5073944;28;20024;-29
2023/03/15 07:03:13;;;;;;;11.80;3.80;;;;;;;-143.48;93.13;118439.88;5073793;28;20073;-29
2023/03/15 07:05:39;;;;;;;9.43;3.15;;;;;;;-143.48;92.75;118439.88;5073747;28;20111;-29
2023/03/15 07:08:04;;;;;;;9.18;3.10;;;;;;;-143.48;93.41;118439.88;5074010;28;20028;-29
2023/03/15 07:10:30;;;;;;;10.07;3.00;;;;;;;-143.48;93.19;118439.88;5074060;28;20459;-29
2023/03/15 07:12:55;;;;;;;13.63;3.28;;;;;;;-143.48;92.50;118439.88;5073728;28;20487;-29
2023/03/15 07:15:20;;;;;;;9.55;2.78;;;;;;;-143.48;92.32;118439.88;5056369;28;20016;-29
2023/03/15 07:17:46;;;;;;;8.02;2.45;;;;;;;-143.48;91.94;118439.88;5073914;28;20024;-29
2023/03/15 07:20:11;;;;;;;7.72;2.13;;;;;;;-143.48;91.36;118439.88;5055508;28;20119;-29
2023/03/15 07:22:37;;;;;;;10.30;2.22;;;;;;;-143.48;91.09;118439.88;5073890;28;20024;-29
2023/03/15 07:25:05;;;;;;;5.15;1.95;;;;;;;-143.48;90.80;118439.88;5073643;28;20028;-29
2023/03/15 07:27:30;;;;;;;9.70;2.85;;;;;;;-143.48;90.16;118439.88;5073443;28;20078;-29
2023/03/15 07:29:55;;;;;;;9.55;2.10;;;;;;;-143.48;90.09;118439.88;5072978;28;20028;-29
2023/03/15 07:32:21;;;;;;;8.35;2.00;;;;;;;-143.48;91.03;118439.88;5073685;28;20013;-29
2023/03/15 07:34:46;;;;;;;7.53;2.00;;;;;;;-143.48;89.92;118439.88;5073431;28;20163;-29
2023/03/15 07:37:11;;;;;;;12.63;2.40;;;;;;;-143.48;88.48;118439.88;5072684;28;20668;-29
2023/03/15 07:39:37;;;;;;;8.38;1.80;;;;;;;-143.48;87.19;118439.88;5072651;28;20082;-29
2023/03/15 07:42:03;;;;;;;6.90;2.00;;;;;;;-143.48;68.50;118439.88;5072779;28;20028;-29
2023/03/15 07:44:28;;;;;;;9.30;2.00;;;;;;;-143.48;55.85;118439.88;5069956;28;20066;-30
2023/03/15 07:46:54;;;;;;;8.23;2.00;;;;;;;-143.48;57.98;118439.88;5072655;28;20460;-29
2023/03/15 07:49:20;;;;;;;10.57;2.00;;;;;;;-143.48;52.66;118439.88;5055415;28;20021;-29
2023/03/15 07:51:45;;;;;;;9.55;2.17;;;;;;;-143.48;52.15;118439.88;5073554;28;20024;-30
2023/03/15 07:54:11;;;;;;;8.75;2.20;;;;;;;-143.48;54.13;118439.88;5073257;28;20048;-29
2023/03/15 07:56:36;;;;;;;6.47;1.95;;;;;;;-143.48;55.64;118439.88;5073147;28;20138;-29
2023/03/15 07:59:01;;;;;;;8.40;2.20;;;;;;;-143.48;52.30;118439.88;5071469;28;20025;-29
2023/03/15 08:01:27;;;;;;;6.43;2.20;;;;;;;-143.48;51.07;118439.88;5069900;28;20028;-29
2023/03/15 08:03:52;;;;;;;11.43;2.22;;;;;;;-143.48;52.93;118439.88;5071193;28;20094;-29
2023/03/15 08:06:17;;;;;;;8.20;2.30;;;;;;;-143.48;52.34;118439.88;5070864;28;20024;-29
2023/03/15 08:08:43;;;;;;;8.93;2.20;;;;;;;-143.48;51.11;118439.88;5070961;28;20021;-29
2023/03/15 08:11:08;;;;;;;8.52;2.10;;;;;;;-143.48;51.05;118439.88;5070894;28;20035;-29
2023/03/15 08:13:34;;;;;;;8.18;2.20;;;;;;;-143.48;48.71;118439.88;5071678;28;20463;-29
2023/03/15 08:16:00;;;;;;;6.55;2.20;;;;;;;-143.48;48.64;118439.88;5073190;28;20016;-29
2023/03/15 08:18:27;;;;;;;10.63;2.33;;;;;;;-143.48;48.06;118439.88;5073332;28;20473;-30
2023/03/15 08:20:53;;;;;;;7.78;2.10;;;;;;;-143.48;43.82;118439.88;5072801;28;20028;-29
2023/03/15 08:23:18;;;;;;;8.57;2.10;;;;;;;-143.48;41.96;118439.88;5054880;28;20024;-30
2023/03/15 08:25:44;;;;;;;7.22;1.95;;;;;;;-143.48;43.89;118439.88;5072943;28;20374;-29
2023/03/15 08:28:10;;;;;;;6.90;2.05;;;;;;;-143.48;43.72;118439.88;5073195;28;20105;-29
2023/03/15 08:30:36;;;;;;;7.60;2.10;;;;;;;-143.48;43.31;118439.88;5072818;28;20393;-29
2023/03/15 08:33:02;;;;;;;7.75;2.10;;;;;;;-143.48;43.14;118439.88;5072686;28;20016;-29
2023/03/15 08:35:29;;;;;;;5.68;1.85;;;;;;;-143.48;42.64;118439.88;5072815;28;20025;-29
2023/03/15 08:37:55;;;;;;;5.80;2.13;;;;;;;-143.48;41.97;118439.88;5072357;28;20124;-29
2023/03/15 08:40:23;;;;;;;5.40;1.90;;;;;;;-143.48;42.88;118439.88;5072333;28;20052;-29
2023/03/15 08:42:50;;;;;;;6.25;1.90;;;;;;;-143.48;42.22;118439.88;5072787;28;20020;-30
2023/03/15 08:45:15;;;;;;;6.07;1.70;;;;;;;-143.48;40.13;118439.88;5073103;28;20364;-30
2023/03/15 08:47:41;;;;;;;5.95;1.80;;;;;;;-143.48;40.08;118439.88;5072789;28;20032;-29
2023/03/15 08:50:10;;;;;;;7.22;2.00;;;;;;;-143.48;40.77;118439.88;5072647;28;20028;-29
2023/03/15 08:52:36;;;;;;;7.47;1.88;;;;;;;-143.48;43.05;118439.88;5072914;28;20078;-29
2023/03/15 08:55:03;;;;;;;6.03;1.65;;;;;;;-143.48;41.44;118439.88;5075716;28;20025;-30
2023/03/15 08:57:31;;;;;;;6.65;2.20;;;;;;;-143.48;41.43;118439.88;5076442;28;20024;-29
2023/03/15 09:02:25;;;;;;;6.18;1.60;;;;;;;-143.48;37.61;118439.88;5054195;28;20045;-70
2023/03/15 09:04:50;;;;;;;7.38;1.70;;;;;;;-143.48;39.19;118439.88;5055958;28;20031;-71
2023/03/15 09:07:16;;;;;;;5.95;2.22;;;;;;;-143.48;40.11;118439.88;5055135;28;20079;-71
2023/03/15 09:09:47;;;;;;;8.23;2.15;;;;;;;-143.48;39.50;118439.88;5054471;28;20476;-72
2023/03/15 09:12:15;;;;;;;5.97;1.65;;;;;;;-143.48;39.63;118439.88;5055645;28;20024;-72
2023/03/15 09:14:40;;;;;;;6.30;1.60;;;;;;;-143.48;39.82;118439.88;5054372;28;20025;-72
2023/03/15 09:17:05;;;;;;;5.55;1.70;;;;;;;-143.48;37.65;118439.88;5055808;28;20448;-71
2023/03/15 09:19:31;;;;;;;6.13;1.90;;;;;;;-143.48;38.02;118439.88;5055680;28;20021;-71
2023/03/15 09:21:56;;;;;;;7.88;1.85;;;;;;;-143.48;37.83;118439.88;5055860;28;20434;-71
2023/03/15 09:24:22;;;;;;;5.60;1.65;;;;;;;-143.48;36.13;118439.88;5056399;28;20025;-72
2023/03/15 09:26:47;;;;;;;5.55;1.70;;;;;;;-143.48;34.12;118439.88;5055459;28;20063;-70
2023/03/15 09:29:13;;;;;;;5.35;1.58;;;;;;;-143.48;33.95;118439.88;5056201;28;20480;-70
2023/03/15 09:31:41;;;;;;;4.55;1.55;;;;;;;-143.48;34.30;118439.88;5059329;28;20121;-72
2023/03/15 09:34:09;;;;;;;6.38;1.65;;;;;;;-143.48;34.71;118439.88;5057151;28;20036;-70
2023/03/15 09:36:44;;;;;;;4.40;1.50;;;;;;;-143.48;36.17;118439.88;5056853;28;20024;-71
2023/03/15 09:39:10;;;;;;;6.03;1.42;;;;;;;-143.48;35.44;118439.88;5057509;28;20029;-71
2023/03/15 09:42:09;;;;;;;5.10;1.52;;;;;;;-143.48;35.19;118439.88;5056539;28;20384;-71
2023/03/15 09:44:47;;;;;;;6.32;1.42;;;;;;;-143.48;33.39;118439.88;5051679;28;20033;-71
2023/03/15 09:47:39;;;;;;;4.18;1.30;;;;;;;-143.48;35.34;118439.88;5056327;28;20025;-71
2023/03/15 09:50:15;;;;;;;3.67;1.27;;;;;;;-143.48;32.38;118439.88;5056717;28;20043;-69
2023/03/15 09:52:48;;;;;;;8.73;1.77;;;;;;;-143.48;32.57;118439.88;5056009;28;20021;-72
2023/03/15 09:55:24;;;;;;;6.03;1.38;;;;;;;-143.48;33.37;118439.88;5054558;28;20388;-70
2023/03/15 09:57:56;;;;;;;7.05;1.27;;;;;;;-143.48;34.34;118439.88;5055491;28;20024;-71
2023/03/15 10:00:35;;;;;;;7.15;1.63;;;;;;;-143.48;33.04;118439.88;5055266;28;20132;-71
2023/03/15 10:03:08;;;;;;;4.75;1.08;;;;;;;-143.48;33.87;118439.88;5053992;28;20131;-71
2023/03/15 10:05:40;;;;;;;7.80;1.40;;;;;;;-143.48;35.55;118439.88;5052481;28;20087;-71
2023/03/15 10:08:11;;;;;;;5.72;1.23;;;;;;;-143.48;37.23;118439.88;5052608;28;20021;-71
2023/03/15 10:10:46;;;;;;;6.15;1.30;;;;;;;-143.48;38.98;118439.88;5052247;28;20032;-71
2023/03/15 10:13:11;;;;;;;5.63;1.23;;;;;;;-143.48;36.65;118439.88;5054054;28;20024;-70
2023/03/15 10:15:49;;;;;;;5.22;1.23;;;;;;;-143.48;38.92;118439.88;5052913;28;20495;-71
2023/03/15 10:18:34;;;;;;;4.18;1.23;;;;;;;-143.48;40.21;118439.88;5053183;28;20476;-69
2023/03/15 10:21:14;;;;;;;5.10;1.70;;;;;;;-143.48;41.39;118439.88;5053442;28;20036;-72
2023/03/15 10:23:49;;;;;;;4.18;0.93;;;;;;;-143.48;40.69;118439.88;5054573;28;20508;-71
2023/03/15 10:26:21;;;;;;;5.10;1.30;;;;;;;-143.48;41.57;118439.88;5054220;28;20036;-70
2023/03/15 10:28:48;;;;;;;6.25;1.30;;;;;;;-143.48;40.61;118439.88;5054573;28;20495;-70
2023/03/15 10:31:17;;;;;;;4.13;1.05;;;;;;;-143.48;39.08;118439.88;5054309;28;20020;-69
2023/03/15 10:33:45;;;;;;;5.35;1.20;;;;;;;-143.48;38.58;118439.88;5054385;28;20035;-70
2023/03/15 10:36:15;;;;;;;6.65;1.35;;;;;;;-143.48;40.54;118439.88;5054376;28;20020;-70
2023/03/15 10:38:41;;;;;;;2.55;1.05;;;;;;;-143.48;39.15;118439.88;5053928;28;20021;-70
2023/03/15 10:41:07;;;;;;;5.63;1.13;;;;;;;-143.48;39.38;118439.88;5053939;28;20495;-70
2023/03/15 10:43:36;;;;;;;5.88;1.27;;;;;;;-143.48;38.02;118439.88;5054048;28;20032;-70
2023/03/15 10:46:10;;;;;;;5.22;1.20;;;;;;;-143.48;38.84;118439.88;5054395;28;20380;-69
2023/03/15 10:48:55;;;;;;;8.85;1.05;;;;;;;-143.48;37.78;118439.88;5054161;28;20082;-70
2023/03/15 10:51:30;;;;;;;3.67;1.17;;;;;;;-143.48;39.25;118439.88;5053198;28;20526;-71
2023/03/15 10:54:06;;;;;;;5.90;1.25;;;;;;;-143.48;39.72;118439.88;5054243;28;20036;-70
2023/03/15 10:56:49;;;;;;;4.45;0.90;;;;;;;-143.48;38.11;118439.88;5054953;28;20025;-71
2023/03/15 10:59:25;;;;;;;6.95;1.38;;;;;;;-143.48;38.21;118439.88;5052937;28;20393;-69
2023/03/15 11:02:13;;;;;;;4.68;1.10;;;;;;;-143.48;37.14;118439.88;5053032;28;20041;-70
2023/03/15 11:04:46;;;;;;;5.97;2.17;;;;;;;-143.48;39.06;118439.88;5053860;28;20104;-71
2023/03/15 11:07:12;;;;;;;6.53;1.45;;;;;;;-143.48;40.48;118439.88;5053924;28;20112;-72
2023/03/15 11:09:42;;;;;;;6.28;1.23;;;;;;;-143.48;38.27;118439.88;5053754;28;20479;-71
2023/03/15 11:12:15;;;;;;;4.75;1.20;;;;;;;-143.48;37.58;118439.88;5052650;28;20366;-70